sensor_id;sensor_type;location;lat;lon;timestamp;temperature;humidity
14192;DHT22;7177;48.572;7.838;2023-09-30T00:00:02;18.00;99.90
14192;DHT22;7177;48.572;7.838;2023-09-30T00:02:33;18.00;99.90
14192;DHT22;7177;48.572;7.838;2023-09-30T00:04:58;17.90;99.90
14192;DHT22;7177;48.572;7.838;2023-09-30T00:07:24;17.90;99.90
14192;DHT22;7177;48.572;7.838;2023-09-30T00:09:50;17.90;99.90
14192;DHT22;7177;48.572;7.838;2023-09-30T00:12:17;17.90;99.90
14192;DHT22;7177;48.572;7.838;2023-09-30T00:14:42;17.90;99.90
14192;DHT22;7177;48.572;7.838;2023-09-30T00:17:08;17.90;99.90
14192;DHT22;7177;48.572;7.838;2023-09-30T00:19:34;17.90;99.90
14192;DHT22;7177;48.572;7.838;2023-09-30T00:21:59;18.00;99.90
14192;DHT22;7177;48.572;7.838;2023-09-30T00:24:25;17.90;99.90
14192;DHT22;7177;48.572;7.838;2023-09-30T00:26:51;17.90;99.90
14192;DHT22;7177;48.572;7.838;2023-09-30T00:29:17;17.90;99.90
14192;DHT22;7177;48.572;7.838;2023-09-30T00:31:43;17.90;99.90
14192;DHT22;7177;48.572;7.838;2023-09-30T00:34:09;17.90;99.90
14192;DHT22;7177;48.572;7.838;2023-09-30T00:36:35;17.90;99.90
14192;DHT22;7177;48.572;7.838;2023-09-30T00:39:00;17.80;99.90
14192;DHT22;7177;48.572;7.838;2023-09-30T00:41:26;17.80;99.90
14192;DHT22;7177;48.572;7.838;2023-09-30T00:43:51;17.80;99.90
14192;DHT22;7177;48.572;7.838;2023-09-30T00:48:49;17.80;99.90
14192;DHT22;7177;48.572;7.838;2023-09-30T00:51:14;17.70;99.90
14192;DHT22;7177;48.572;7.838;2023-09-30T00:53:40;17.50;99.90
14192;DHT22;7177;48.572;7.838;2023-09-30T00:56:06;17.40;99.90
14192;DHT22;7177;48.572;7.838;2023-09-30T00:58:34;17.30;99.90
14192;DHT22;7177;48.572;7.838;2023-09-30T01:01:01;17.30;99.90
14192;DHT22;7177;48.572;7.838;2023-09-30T01:03:27;17.20;99.90
14192;DHT22;7177;48.572;7.838;2023-09-30T01:05:53;17.10;99.90
14192;DHT22;7177;48.572;7.838;2023-09-30T01:08:19;16.90;99.90
14192;DHT22;7177;48.572;7.838;2023-09-30T01:10:45;16.80;99.90
14192;DHT22;7177;48.572;7.838;2023-09-30T01:13:11;16.80;99.90
14192;DHT22;7177;48.572;7.838;2023-09-30T01:15:36;16.60;99.90
14192;DHT22;7177;48.572;7.838;2023-09-30T01:18:03;16.50;99.90
14192;DHT22;7177;48.572;7.838;2023-09-30T01:20:28;16.40;99.90
14192;DHT22;7177;48.572;7.838;2023-09-30T01:22:56;16.30;99.90
14192;DHT22;7177;48.572;7.838;2023-09-30T01:25:22;16.20;99.90
14192;DHT22;7177;48.572;7.838;2023-09-30T01:27:48;16.20;99.90
14192;DHT22;7177;48.572;7.838;2023-09-30T01:30:13;16.20;99.90
14192;DHT22;7177;48.572;7.838;2023-09-30T01:32:39;16.10;99.90
14192;DHT22;7177;48.572;7.838;2023-09-30T01:35:06;16.00;99.90
14192;DHT22;7177;48.572;7.838;2023-09-30T01:37:31;15.90;99.90
14192;DHT22;7177;48.572;7.838;2023-09-30T01:39:57;15.90;99.90
14192;DHT22;7177;48.572;7.838;2023-09-30T01:42:23;16.00;99.90
14192;DHT22;7177;48.572;7.838;2023-09-30T01:44:48;16.00;99.90
14192;DHT22;7177;48.572;7.838;2023-09-30T01:47:14;16.00;99.90
14192;DHT22;7177;48.572;7.838;2023-09-30T01:49:39;16.00;99.90
14192;DHT22;7177;48.572;7.838;2023-09-30T01:52:05;16.00;99.90
14192;DHT22;7177;48.572;7.838;2023-09-30T01:54:30;16.00;99.90
14192;DHT22;7177;48.572;7.838;2023-09-30T01:56:56;16.10;99.90
14192;DHT22;7177;48.572;7.838;2023-09-30T01:59:22;16.10;99.90
14192;DHT22;7177;48.572;7.838;2023-09-30T02:01:48;16.10;99.90
14192;DHT22;7177;48.572;7.838;2023-09-30T02:04:14;16.20;99.90
14192;DHT22;7177;48.572;7.838;2023-09-30T02:06:42;16.10;99.90
14192;DHT22;7177;48.572;7.838;2023-09-30T02:09:08;16.20;99.90
14192;DHT22;7177;48.572;7.838;2023-09-30T02:11:37;16.20;99.90
14192;DHT22;7177;48.572;7.838;2023-09-30T02:14:03;16.20;99.90
14192;DHT22;7177;48.572;7.838;2023-09-30T02:16:31;16.20;99.90
14192;DHT22;7177;48.572;7.838;2023-09-30T02:18:56;16.20;99.90
14192;DHT22;7177;48.572;7.838;2023-09-30T02:21:22;16.20;99.90
14192;DHT22;7177;48.572;7.838;2023-09-30T02:23:48;16.20;99.90
14192;DHT22;7177;48.572;7.838;2023-09-30T02:26:16;16.20;99.90
14192;DHT22;7177;48.572;7.838;2023-09-30T02:28:42;16.10;99.90
14192;DHT22;7177;48.572;7.838;2023-09-30T02:31:08;16.00;99.90
14192;DHT22;7177;48.572;7.838;2023-09-30T02:33:34;16.00;99.90
14192;DHT22;7177;48.572;7.838;2023-09-30T02:36:07;16.00;99.90
14192;DHT22;7177;48.572;7.838;2023-09-30T02:38:32;16.00;99.90
14192;DHT22;7177;48.572;7.838;2023-09-30T02:40:58;16.00;99.90
14192;DHT22;7177;48.572;7.838;2023-09-30T02:43:23;16.00;99.90
14192;DHT22;7177;48.572;7.838;2023-09-30T02:45:49;16.00;99.90
14192;DHT22;7177;48.572;7.838;2023-09-30T02:48:15;16.00;99.90
14192;DHT22;7177;48.572;7.838;2023-09-30T02:50:43;16.10;99.90
14192;DHT22;7177;48.572;7.838;2023-09-30T02:53:12;16.10;99.90
14192;DHT22;7177;48.572;7.838;2023-09-30T02:55:41;16.10;99.90
14192;DHT22;7177;48.572;7.838;2023-09-30T02:58:08;16.10;99.90
14192;DHT22;7177;48.572;7.838;2023-09-30T03:00:34;16.00;99.90
14192;DHT22;7177;48.572;7.838;2023-09-30T03:03:01;16.00;99.90
14192;DHT22;7177;48.572;7.838;2023-09-30T03:05:30;15.90;99.90
14192;DHT22;7177;48.572;7.838;2023-09-30T03:08:04;15.90;99.90
14192;DHT22;7177;48.572;7.838;2023-09-30T03:10:29;15.90;99.90
14192;DHT22;7177;48.572;7.838;2023-09-30T03:12:58;15.90;99.90
14192;DHT22;7177;48.572;7.838;2023-09-30T03:15:27;15.80;99.90
14192;DHT22;7177;48.572;7.838;2023-09-30T03:17:53;15.90;99.90
14192;DHT22;7177;48.572;7.838;2023-09-30T03:20:21;15.90;99.90
14192;DHT22;7177;48.572;7.838;2023-09-30T03:22:47;16.00;99.90
14192;DHT22;7177;48.572;7.838;2023-09-30T03:25:14;16.00;99.90
14192;DHT22;7177;48.572;7.838;2023-09-30T03:27:41;16.00;99.90
14192;DHT22;7177;48.572;7.838;2023-09-30T03:30:08;16.00;99.90
14192;DHT22;7177;48.572;7.838;2023-09-30T03:32:34;16.00;99.90
14192;DHT22;7177;48.572;7.838;2023-09-30T03:35:13;16.00;99.90
14192;DHT22;7177;48.572;7.838;2023-09-30T03:37:46;16.00;99.90
14192;DHT22;7177;48.572;7.838;2023-09-30T03:40:12;16.10;99.90
14192;DHT22;7177;48.572;7.838;2023-09-30T03:42:45;16.10;99.90
14192;DHT22;7177;48.572;7.838;2023-09-30T03:45:11;16.10;99.90
14192;DHT22;7177;48.572;7.838;2023-09-30T03:47:40;16.10;99.90
14192;DHT22;7177;48.572;7.838;2023-09-30T03:50:06;16.10;99.90
14192;DHT22;7177;48.572;7.838;2023-09-30T03:52:41;16.10;99.90
14192;DHT22;7177;48.572;7.838;2023-09-30T03:55:13;16.10;99.90
14192;DHT22;7177;48.572;7.838;2023-09-30T03:57:47;16.10;99.90
14192;DHT22;7177;48.572;7.838;2023-09-30T04:00:13;16.10;99.90
14192;DHT22;7177;48.572;7.838;2023-09-30T04:02:41;16.10;99.90
14192;DHT22;7177;48.572;7.838;2023-09-30T04:05:08;16.00;99.90
14192;DHT22;7177;48.572;7.838;2023-09-30T04:07:36;15.90;99.90
14192;DHT22;7177;48.572;7.838;2023-09-30T04:10:02;15.90;99.90
14192;DHT22;7177;48.572;7.838;2023-09-30T04:12:29;15.90;99.90
14192;DHT22;7177;48.572;7.838;2023-09-30T04:14:55;15.90;99.90
14192;DHT22;7177;48.572;7.838;2023-09-30T04:17:20;15.90;99.90
14192;DHT22;7177;48.572;7.838;2023-09-30T04:19:48;15.90;99.90
14192;DHT22;7177;48.572;7.838;2023-09-30T04:22:17;15.90;99.90
14192;DHT22;7177;48.572;7.838;2023-09-30T04:24:42;15.80;99.90
14192;DHT22;7177;48.572;7.838;2023-09-30T04:27:08;15.90;99.90
14192;DHT22;7177;48.572;7.838;2023-09-30T04:29:34;15.90;99.90
14192;DHT22;7177;48.572;7.838;2023-09-30T04:32:00;15.90;99.90
14192;DHT22;7177;48.572;7.838;2023-09-30T04:34:25;15.80;99.90
14192;DHT22;7177;48.572;7.838;2023-09-30T04:36:53;15.70;99.90
14192;DHT22;7177;48.572;7.838;2023-09-30T04:39:18;15.60;99.90
14192;DHT22;7177;48.572;7.838;2023-09-30T04:41:44;15.60;99.90
14192;DHT22;7177;48.572;7.838;2023-09-30T04:44:09;15.60;99.90
14192;DHT22;7177;48.572;7.838;2023-09-30T04:46:35;15.60;99.90
14192;DHT22;7177;48.572;7.838;2023-09-30T04:49:03;15.70;99.90
14192;DHT22;7177;48.572;7.838;2023-09-30T04:51:30;15.70;99.90
14192;DHT22;7177;48.572;7.838;2023-09-30T04:53:58;15.70;99.90
14192;DHT22;7177;48.572;7.838;2023-09-30T04:56:25;15.70;99.90
14192;DHT22;7177;48.572;7.838;2023-09-30T04:58:50;15.70;99.90
14192;DHT22;7177;48.572;7.838;2023-09-30T05:01:16;15.70;99.90
14192;DHT22;7177;48.572;7.838;2023-09-30T05:03:46;15.60;99.90
14192;DHT22;7177;48.572;7.838;2023-09-30T05:06:15;15.50;99.90
14192;DHT22;7177;48.572;7.838;2023-09-30T05:08:40;15.60;99.90
14192;DHT22;7177;48.572;7.838;2023-09-30T05:11:07;15.60;99.90
14192;DHT22;7177;48.572;7.838;2023-09-30T05:13:32;15.60;99.90
14192;DHT22;7177;48.572;7.838;2023-09-30T05:15:59;15.70;99.90
14192;DHT22;7177;48.572;7.838;2023-09-30T05:18:25;15.70;99.90
14192;DHT22;7177;48.572;7.838;2023-09-30T05:20:50;15.90;99.90
14192;DHT22;7177;48.572;7.838;2023-09-30T05:23:16;16.00;99.90
14192;DHT22;7177;48.572;7.838;2023-09-30T05:25:44;16.20;99.90
14192;DHT22;7177;48.572;7.838;2023-09-30T05:28:09;16.30;99.90
14192;DHT22;7177;48.572;7.838;2023-09-30T05:30:36;16.40;99.90
14192;DHT22;7177;48.572;7.838;2023-09-30T05:33:02;16.40;99.90
14192;DHT22;7177;48.572;7.838;2023-09-30T05:35:28;16.30;99.90
14192;DHT22;7177;48.572;7.838;2023-09-30T05:37:55;16.40;99.90
14192;DHT22;7177;48.572;7.838;2023-09-30T05:40:21;16.50;99.90
14192;DHT22;7177;48.572;7.838;2023-09-30T05:42:56;16.50;99.90
14192;DHT22;7177;48.572;7.838;2023-09-30T05:45:31;16.50;99.90
14192;DHT22;7177;48.572;7.838;2023-09-30T05:48:01;16.20;99.90
14192;DHT22;7177;48.572;7.838;2023-09-30T05:50:30;16.10;99.90
14192;DHT22;7177;48.572;7.838;2023-09-30T05:52:56;16.00;99.90
14192;DHT22;7177;48.572;7.838;2023-09-30T05:55:23;16.00;99.90
14192;DHT22;7177;48.572;7.838;2023-09-30T05:57:50;16.00;99.90
14192;DHT22;7177;48.572;7.838;2023-09-30T06:00:17;16.00;99.90
14192;DHT22;7177;48.572;7.838;2023-09-30T06:02:54;16.00;99.90
14192;DHT22;7177;48.572;7.838;2023-09-30T06:05:20;16.00;99.90
14192;DHT22;7177;48.572;7.838;2023-09-30T06:07:48;16.00;99.90
14192;DHT22;7177;48.572;7.838;2023-09-30T06:10:13;16.00;99.90
14192;DHT22;7177;48.572;7.838;2023-09-30T06:12:45;16.10;99.90
14192;DHT22;7177;48.572;7.838;2023-09-30T06:15:12;16.10;99.90
14192;DHT22;7177;48.572;7.838;2023-09-30T06:17:39;16.10;99.90
14192;DHT22;7177;48.572;7.838;2023-09-30T06:20:05;16.20;99.90
14192;DHT22;7177;48.572;7.838;2023-09-30T06:22:44;16.10;99.90
14192;DHT22;7177;48.572;7.838;2023-09-30T06:25:15;16.10;99.90
14192;DHT22;7177;48.572;7.838;2023-09-30T06:27:45;16.10;99.90
14192;DHT22;7177;48.572;7.838;2023-09-30T06:30:11;16.10;99.90
14192;DHT22;7177;48.572;7.838;2023-09-30T06:32:37;16.20;99.90
14192;DHT22;7177;48.572;7.838;2023-09-30T06:35:06;16.20;99.90
14192;DHT22;7177;48.572;7.838;2023-09-30T06:37:32;16.20;99.90
14192;DHT22;7177;48.572;7.838;2023-09-30T06:39:58;16.30;99.90
14192;DHT22;7177;48.572;7.838;2023-09-30T06:42:24;16.30;99.90
14192;DHT22;7177;48.572;7.838;2023-09-30T06:44:50;16.30;99.90
14192;DHT22;7177;48.572;7.838;2023-09-30T06:47:16;16.30;99.90
14192;DHT22;7177;48.572;7.838;2023-09-30T06:49:41;16.40;99.90
14192;DHT22;7177;48.572;7.838;2023-09-30T06:52:07;16.60;99.90
14192;DHT22;7177;48.572;7.838;2023-09-30T06:54:33;16.80;99.90
14192;DHT22;7177;48.572;7.838;2023-09-30T06:56:58;17.00;99.90
14192;DHT22;7177;48.572;7.838;2023-09-30T06:59:24;17.10;99.90
14192;DHT22;7177;48.572;7.838;2023-09-30T07:01:50;17.10;99.90
14192;DHT22;7177;48.572;7.838;2023-09-30T07:04:16;17.20;99.90
14192;DHT22;7177;48.572;7.838;2023-09-30T07:06:42;17.30;99.90
14192;DHT22;7177;48.572;7.838;2023-09-30T07:09:07;17.40;99.90
14192;DHT22;7177;48.572;7.838;2023-09-30T07:11:34;17.50;99.90
14192;DHT22;7177;48.572;7.838;2023-09-30T07:14:01;17.60;99.90
14192;DHT22;7177;48.572;7.838;2023-09-30T07:16:26;17.70;99.90
14192;DHT22;7177;48.572;7.838;2023-09-30T07:18:52;17.80;99.90
14192;DHT22;7177;48.572;7.838;2023-09-30T07:21:17;18.10;99.90
14192;DHT22;7177;48.572;7.838;2023-09-30T07:23:43;18.30;99.90
14192;DHT22;7177;48.572;7.838;2023-09-30T07:26:09;18.60;99.90
14192;DHT22;7177;48.572;7.838;2023-09-30T07:28:34;19.00;99.90
14192;DHT22;7177;48.572;7.838;2023-09-30T07:31:00;19.30;99.90
14192;DHT22;7177;48.572;7.838;2023-09-30T07:33:26;19.40;99.90
14192;DHT22;7177;48.572;7.838;2023-09-30T07:35:51;19.50;99.90
14192;DHT22;7177;48.572;7.838;2023-09-30T07:38:17;19.60;99.90
14192;DHT22;7177;48.572;7.838;2023-09-30T07:40:43;19.50;99.90
14192;DHT22;7177;48.572;7.838;2023-09-30T07:43:09;19.60;99.90
14192;DHT22;7177;48.572;7.838;2023-09-30T07:45:36;19.60;99.90
14192;DHT22;7177;48.572;7.838;2023-09-30T07:48:01;19.60;99.90
14192;DHT22;7177;48.572;7.838;2023-09-30T07:50:30;19.70;99.90
14192;DHT22;7177;48.572;7.838;2023-09-30T07:52:56;19.60;99.90
14192;DHT22;7177;48.572;7.838;2023-09-30T07:55:21;19.80;99.90
14192;DHT22;7177;48.572;7.838;2023-09-30T07:57:47;19.90;99.90
14192;DHT22;7177;48.572;7.838;2023-09-30T08:00:13;20.00;99.90
14192;DHT22;7177;48.572;7.838;2023-09-30T08:02:43;20.20;99.90
14192;DHT22;7177;48.572;7.838;2023-09-30T08:05:09;20.40;99.90
14192;DHT22;7177;48.572;7.838;2023-09-30T08:07:35;20.60;99.90
14192;DHT22;7177;48.572;7.838;2023-09-30T08:10:02;20.60;99.90
14192;DHT22;7177;48.572;7.838;2023-09-30T08:12:32;20.80;99.90
14192;DHT22;7177;48.572;7.838;2023-09-30T08:14:58;20.90;99.90
14192;DHT22;7177;48.572;7.838;2023-09-30T08:17:23;21.00;99.90
14192;DHT22;7177;48.572;7.838;2023-09-30T08:19:49;21.10;99.90
14192;DHT22;7177;48.572;7.838;2023-09-30T08:22:14;21.10;99.90
14192;DHT22;7177;48.572;7.838;2023-09-30T08:24:40;21.20;99.90
14192;DHT22;7177;48.572;7.838;2023-09-30T08:27:06;21.60;99.90
14192;DHT22;7177;48.572;7.838;2023-09-30T08:29:35;21.90;99.90
14192;DHT22;7177;48.572;7.838;2023-09-30T08:32:02;22.20;99.90
14192;DHT22;7177;48.572;7.838;2023-09-30T08:34:28;22.60;99.90
14192;DHT22;7177;48.572;7.838;2023-09-30T08:36:54;23.00;99.90
14192;DHT22;7177;48.572;7.838;2023-09-30T08:39:20;23.10;99.90
14192;DHT22;7177;48.572;7.838;2023-09-30T08:41:45;23.10;99.90
14192;DHT22;7177;48.572;7.838;2023-09-30T08:44:11;23.20;99.90
14192;DHT22;7177;48.572;7.838;2023-09-30T08:46:39;23.50;99.90
14192;DHT22;7177;48.572;7.838;2023-09-30T08:49:05;23.30;99.90
14192;DHT22;7177;48.572;7.838;2023-09-30T08:51:35;23.20;99.90
14192;DHT22;7177;48.572;7.838;2023-09-30T08:54:01;23.50;99.90
14192;DHT22;7177;48.572;7.838;2023-09-30T08:56:30;23.70;99.90
14192;DHT22;7177;48.572;7.838;2023-09-30T08:58:59;23.60;99.90
14192;DHT22;7177;48.572;7.838;2023-09-30T09:01:27;23.80;99.90
14192;DHT22;7177;48.572;7.838;2023-09-30T09:03:53;24.10;99.90
14192;DHT22;7177;48.572;7.838;2023-09-30T09:06:22;24.60;99.90
14192;DHT22;7177;48.572;7.838;2023-09-30T09:08:49;24.80;99.90
14192;DHT22;7177;48.572;7.838;2023-09-30T09:11:15;24.70;99.90
14192;DHT22;7177;48.572;7.838;2023-09-30T09:13:51;24.50;99.90
14192;DHT22;7177;48.572;7.838;2023-09-30T09:16:21;24.30;99.90
14192;DHT22;7177;48.572;7.838;2023-09-30T09:18:48;24.50;99.90
14192;DHT22;7177;48.572;7.838;2023-09-30T09:21:19;24.60;99.90
14192;DHT22;7177;48.572;7.838;2023-09-30T09:23:47;24.70;99.90
14192;DHT22;7177;48.572;7.838;2023-09-30T09:26:25;24.80;99.90
14192;DHT22;7177;48.572;7.838;2023-09-30T09:28:59;25.00;99.90
14192;DHT22;7177;48.572;7.838;2023-09-30T09:31:30;25.30;99.90
14192;DHT22;7177;48.572;7.838;2023-09-30T09:33:57;25.40;99.90
14192;DHT22;7177;48.572;7.838;2023-09-30T09:36:46;24.90;99.90
14192;DHT22;7177;48.572;7.838;2023-09-30T09:39:12;24.40;99.90
14192;DHT22;7177;48.572;7.838;2023-09-30T09:41:55;24.60;99.90
14192;DHT22;7177;48.572;7.838;2023-09-30T09:44:24;25.20;99.90
14192;DHT22;7177;48.572;7.838;2023-09-30T09:46:50;25.80;99.90
14192;DHT22;7177;48.572;7.838;2023-09-30T09:49:17;26.20;99.90
14192;DHT22;7177;48.572;7.838;2023-09-30T09:51:44;26.30;99.90
14192;DHT22;7177;48.572;7.838;2023-09-30T09:54:11;26.80;99.90
14192;DHT22;7177;48.572;7.838;2023-09-30T09:56:38;27.20;99.90
14192;DHT22;7177;48.572;7.838;2023-09-30T09:59:04;27.60;99.90
14192;DHT22;7177;48.572;7.838;2023-09-30T10:01:33;27.50;99.90
14192;DHT22;7177;48.572;7.838;2023-09-30T10:04:00;27.20;99.90
14192;DHT22;7177;48.572;7.838;2023-09-30T10:06:26;27.10;99.90
14192;DHT22;7177;48.572;7.838;2023-09-30T10:08:52;26.40;99.90
14192;DHT22;7177;48.572;7.838;2023-09-30T10:11:20;26.40;99.90
14192;DHT22;7177;48.572;7.838;2023-09-30T10:13:56;26.30;99.90
14192;DHT22;7177;48.572;7.838;2023-09-30T10:19:13;27.60;99.90
14192;DHT22;7177;48.572;7.838;2023-09-30T10:21:39;28.20;99.90
14192;DHT22;7177;48.572;7.838;2023-09-30T10:35:21;28.40;99.90
14192;DHT22;7177;48.572;7.838;2023-09-30T10:37:47;27.70;99.90
14192;DHT22;7177;48.572;7.838;2023-09-30T10:40:29;27.90;99.90
14192;DHT22;7177;48.572;7.838;2023-09-30T10:42:56;28.10;99.90
14192;DHT22;7177;48.572;7.838;2023-09-30T10:51:18;29.60;97.50
14192;DHT22;7177;48.572;7.838;2023-09-30T10:53:54;29.60;96.60
14192;DHT22;7177;48.572;7.838;2023-09-30T10:56:32;29.40;97.90
14192;DHT22;7177;48.572;7.838;2023-09-30T10:58:58;29.90;97.40
14192;DHT22;7177;48.572;7.838;2023-09-30T11:01:25;30.00;97.00
14192;DHT22;7177;48.572;7.838;2023-09-30T11:03:58;29.90;95.90
14192;DHT22;7177;48.572;7.838;2023-09-30T11:06:24;30.10;96.50
14192;DHT22;7177;48.572;7.838;2023-09-30T11:11:16;30.40;94.60
14192;DHT22;7177;48.572;7.838;2023-09-30T11:13:41;30.50;94.30
14192;DHT22;7177;48.572;7.838;2023-09-30T11:16:07;30.20;94.50
14192;DHT22;7177;48.572;7.838;2023-09-30T11:18:34;29.90;94.40
14192;DHT22;7177;48.572;7.838;2023-09-30T11:21:10;29.80;94.60
14192;DHT22;7177;48.572;7.838;2023-09-30T11:23:37;29.90;94.50
14192;DHT22;7177;48.572;7.838;2023-09-30T11:26:03;29.90;94.40
14192;DHT22;7177;48.572;7.838;2023-09-30T11:28:40;29.70;94.80
14192;DHT22;7177;48.572;7.838;2023-09-30T11:31:11;29.90;94.50
14192;DHT22;7177;48.572;7.838;2023-09-30T11:33:49;29.90;93.90
14192;DHT22;7177;48.572;7.838;2023-09-30T11:36:19;29.60;93.70
14192;DHT22;7177;48.572;7.838;2023-09-30T11:38:46;29.00;94.40
14192;DHT22;7177;48.572;7.838;2023-09-30T11:41:13;28.60;95.10
14192;DHT22;7177;48.572;7.838;2023-09-30T11:43:39;28.30;95.30
14192;DHT22;7177;48.572;7.838;2023-09-30T11:46:11;28.30;95.30
14192;DHT22;7177;48.572;7.838;2023-09-30T11:48:55;28.60;93.70
14192;DHT22;7177;48.572;7.838;2023-09-30T11:51:22;28.30;94.20
14192;DHT22;7177;48.572;7.838;2023-09-30T11:53:50;28.00;94.90
14192;DHT22;7177;48.572;7.838;2023-09-30T11:56:16;28.10;95.80
14192;DHT22;7177;48.572;7.838;2023-09-30T11:58:43;28.40;95.50
14192;DHT22;7177;48.572;7.838;2023-09-30T12:01:08;28.30;95.70
14192;DHT22;7177;48.572;7.838;2023-09-30T12:03:37;28.10;94.90
14192;DHT22;7177;48.572;7.838;2023-09-30T12:06:08;27.80;95.60
14192;DHT22;7177;48.572;7.838;2023-09-30T12:08:42;27.80;95.20
14192;DHT22;7177;48.572;7.838;2023-09-30T12:11:08;28.20;94.10
14192;DHT22;7177;48.572;7.838;2023-09-30T12:13:33;28.50;92.70
14192;DHT22;7177;48.572;7.838;2023-09-30T12:15:59;28.70;92.20
14192;DHT22;7177;48.572;7.838;2023-09-30T12:18:24;28.90;91.80
14192;DHT22;7177;48.572;7.838;2023-09-30T12:20:51;29.40;90.70
14192;DHT22;7177;48.572;7.838;2023-09-30T12:23:19;29.90;88.80
14192;DHT22;7177;48.572;7.838;2023-09-30T12:25:46;30.20;86.30
14192;DHT22;7177;48.572;7.838;2023-09-30T12:28:11;30.50;87.30
14192;DHT22;7177;48.572;7.838;2023-09-30T12:30:39;30.00;85.00
14192;DHT22;7177;48.572;7.838;2023-09-30T12:33:05;29.80;85.10
14192;DHT22;7177;48.572;7.838;2023-09-30T12:35:32;29.30;86.50
14192;DHT22;7177;48.572;7.838;2023-09-30T12:37:57;29.00;87.50
14192;DHT22;7177;48.572;7.838;2023-09-30T12:40:23;29.00;89.30
14192;DHT22;7177;48.572;7.838;2023-09-30T12:42:48;29.00;87.80
14192;DHT22;7177;48.572;7.838;2023-09-30T12:45:14;28.70;90.00
14192;DHT22;7177;48.572;7.838;2023-09-30T12:47:40;28.40;90.30
14192;DHT22;7177;48.572;7.838;2023-09-30T12:50:06;28.20;90.10
14192;DHT22;7177;48.572;7.838;2023-09-30T12:52:34;27.70;90.40
14192;DHT22;7177;48.572;7.838;2023-09-30T12:55:00;27.40;91.00
14192;DHT22;7177;48.572;7.838;2023-09-30T12:57:26;27.20;90.80
14192;DHT22;7177;48.572;7.838;2023-09-30T12:59:51;26.90;91.60
14192;DHT22;7177;48.572;7.838;2023-09-30T13:02:19;27.10;91.40
14192;DHT22;7177;48.572;7.838;2023-09-30T13:04:45;27.50;91.30
14192;DHT22;7177;48.572;7.838;2023-09-30T13:07:11;27.60;90.70
14192;DHT22;7177;48.572;7.838;2023-09-30T13:09:40;27.60;90.60
14192;DHT22;7177;48.572;7.838;2023-09-30T13:12:06;27.40;90.80
14192;DHT22;7177;48.572;7.838;2023-09-30T13:14:32;27.60;92.00
14192;DHT22;7177;48.572;7.838;2023-09-30T13:16:57;27.50;91.40
14192;DHT22;7177;48.572;7.838;2023-09-30T13:19:23;27.30;92.30
14192;DHT22;7177;48.572;7.838;2023-09-30T13:21:52;27.30;91.80
14192;DHT22;7177;48.572;7.838;2023-09-30T13:24:21;27.60;92.20
14192;DHT22;7177;48.572;7.838;2023-09-30T13:26:47;27.80;90.80
14192;DHT22;7177;48.572;7.838;2023-09-30T13:29:14;27.90;91.00
14192;DHT22;7177;48.572;7.838;2023-09-30T13:31:42;28.10;90.20
14192;DHT22;7177;48.572;7.838;2023-09-30T13:34:08;28.40;88.10
14192;DHT22;7177;48.572;7.838;2023-09-30T13:36:33;28.50;87.10
14192;DHT22;7177;48.572;7.838;2023-09-30T13:38:59;28.70;85.90
14192;DHT22;7177;48.572;7.838;2023-09-30T13:41:24;29.00;85.60
14192;DHT22;7177;48.572;7.838;2023-09-30T13:43:50;29.20;85.70
14192;DHT22;7177;48.572;7.838;2023-09-30T13:46:15;29.20;84.40
14192;DHT22;7177;48.572;7.838;2023-09-30T13:48:42;28.80;85.70
14192;DHT22;7177;48.572;7.838;2023-09-30T13:51:08;28.60;87.20
14192;DHT22;7177;48.572;7.838;2023-09-30T13:53:34;28.70;86.60
14192;DHT22;7177;48.572;7.838;2023-09-30T13:56:00;28.80;86.20
14192;DHT22;7177;48.572;7.838;2023-09-30T13:58:26;29.10;84.50
14192;DHT22;7177;48.572;7.838;2023-09-30T14:00:52;29.50;84.50
14192;DHT22;7177;48.572;7.838;2023-09-30T14:03:18;29.50;83.90
14192;DHT22;7177;48.572;7.838;2023-09-30T14:05:45;29.10;85.60
14192;DHT22;7177;48.572;7.838;2023-09-30T14:08:11;28.80;86.50
14192;DHT22;7177;48.572;7.838;2023-09-30T14:10:36;28.80;84.10
14192;DHT22;7177;48.572;7.838;2023-09-30T14:13:02;28.90;84.80
14192;DHT22;7177;48.572;7.838;2023-09-30T14:15:28;29.10;85.00
14192;DHT22;7177;48.572;7.838;2023-09-30T14:17:56;29.20;84.20
14192;DHT22;7177;48.572;7.838;2023-09-30T14:20:23;29.10;82.60
14192;DHT22;7177;48.572;7.838;2023-09-30T14:22:49;28.90;84.00
14192;DHT22;7177;48.572;7.838;2023-09-30T14:25:17;29.20;82.30
14192;DHT22;7177;48.572;7.838;2023-09-30T14:27:42;29.10;81.40
14192;DHT22;7177;48.572;7.838;2023-09-30T14:30:08;28.90;83.10
14192;DHT22;7177;48.572;7.838;2023-09-30T14:32:34;28.80;82.10
14192;DHT22;7177;48.572;7.838;2023-09-30T14:34:59;28.80;81.30
14192;DHT22;7177;48.572;7.838;2023-09-30T14:37:25;29.00;79.50
14192;DHT22;7177;48.572;7.838;2023-09-30T14:39:50;29.00;80.90
14192;DHT22;7177;48.572;7.838;2023-09-30T14:42:16;28.90;80.50
14192;DHT22;7177;48.572;7.838;2023-09-30T14:44:41;29.10;81.10
14192;DHT22;7177;48.572;7.838;2023-09-30T14:47:08;29.00;81.00
14192;DHT22;7177;48.572;7.838;2023-09-30T14:49:34;29.00;81.50
14192;DHT22;7177;48.572;7.838;2023-09-30T14:51:59;28.80;81.60
14192;DHT22;7177;48.572;7.838;2023-09-30T14:54:25;28.60;82.30
14192;DHT22;7177;48.572;7.838;2023-09-30T14:56:51;28.60;82.40
14192;DHT22;7177;48.572;7.838;2023-09-30T14:59:17;28.40;82.00
14192;DHT22;7177;48.572;7.838;2023-09-30T15:01:43;28.30;77.60
14192;DHT22;7177;48.572;7.838;2023-09-30T15:04:08;28.30;77.10
14192;DHT22;7177;48.572;7.838;2023-09-30T15:06:34;28.30;77.30
14192;DHT22;7177;48.572;7.838;2023-09-30T15:09:00;28.20;79.50
14192;DHT22;7177;48.572;7.838;2023-09-30T15:11:27;28.10;82.40
14192;DHT22;7177;48.572;7.838;2023-09-30T15:13:53;28.10;81.30
14192;DHT22;7177;48.572;7.838;2023-09-30T15:16:19;28.30;80.50
14192;DHT22;7177;48.572;7.838;2023-09-30T15:18:46;28.20;81.60
14192;DHT22;7177;48.572;7.838;2023-09-30T15:21:12;28.10;81.00
14192;DHT22;7177;48.572;7.838;2023-09-30T15:23:38;27.90;81.30
14192;DHT22;7177;48.572;7.838;2023-09-30T15:26:03;27.60;78.90
14192;DHT22;7177;48.572;7.838;2023-09-30T15:28:29;27.50;81.20
14192;DHT22;7177;48.572;7.838;2023-09-30T15:30:56;27.40;83.10
14192;DHT22;7177;48.572;7.838;2023-09-30T15:33:22;27.40;82.20
14192;DHT22;7177;48.572;7.838;2023-09-30T15:35:49;27.30;83.30
14192;DHT22;7177;48.572;7.838;2023-09-30T15:38:14;27.20;80.40
14192;DHT22;7177;48.572;7.838;2023-09-30T15:40:56;26.90;80.30
14192;DHT22;7177;48.572;7.838;2023-09-30T15:43:26;26.70;81.70
14192;DHT22;7177;48.572;7.838;2023-09-30T15:45:51;26.70;83.30
14192;DHT22;7177;48.572;7.838;2023-09-30T15:48:17;26.50;85.00
14192;DHT22;7177;48.572;7.838;2023-09-30T15:50:43;26.30;84.80
14192;DHT22;7177;48.572;7.838;2023-09-30T15:53:09;26.00;88.40
14192;DHT22;7177;48.572;7.838;2023-09-30T15:55:34;25.80;88.70
14192;DHT22;7177;48.572;7.838;2023-09-30T15:58:01;25.60;89.40
14192;DHT22;7177;48.572;7.838;2023-09-30T16:00:26;24.70;88.20
14192;DHT22;7177;48.572;7.838;2023-09-30T16:02:52;25.10;89.50
14192;DHT22;7177;48.572;7.838;2023-09-30T16:05:17;24.90;90.30
14192;DHT22;7177;48.572;7.838;2023-09-30T16:07:43;24.80;90.60